Tiempo atmosférico en la estación meteorológica de Valmadrid, Zaragoza (535 m.)



Fecha
DESCASC
Temp. máxima en grados centígrados (hora)
DESCASC
Temp. mínima en grados centígrados (hora)
DESCASC
Temp. media en grados centígrados
DESCASC
Racha de viento máxima en m/sg (hora)
DESCASC
Velocidad máxima media en intervalos de 10 minutos(hora)
DESCASC
Precipitaciones diarias en mm
DESCASC
Precipitaciones de 00:00 a 06:00 en mm
DESCASC
Precipitaciones de 06:00 a 12:00 en mm
DESCASC
Precipitaciones de 12:00 a 18:00 en mm
DESCASC
Precipitaciones de 18:00 a 24:00 en mm
DESCASC
26-11-2020 11.2 (21:30) 5.6 (02:50) 8.4 9.72 (22:10) 5.28 (22:10) 0.8 0 0 0.8 0
25-11-2020 11.2 (12:30) 1.3 (00:10) 6.2 6.11 (12:50) 3.61 (12:40) 0 0 0 0 0
24-11-2020 11.5 (12:00) 1 (00:30) 6.3 7.22 (14:50) 3.89 (14:10) 0 0 0 0 0
23-11-2020 13.2 (14:30) 0.6 (05:20) 6.9 4.17 (00:20) 3.33 (03:10) 0 0 0 0 0
22-11-2020 13.1 (14:30) -0.3 (00:00) 6.4 4.72 (23:50) 3.61 (03:20) 0 0 0 0 0
21-11-2020 14.3 (13:50) 1.7 (00:00) 8 11.67 (00:10) 7.22 (00:10) 0 0 0 0 0
20-11-2020 12.4 (14:50) 7 (00:00) 9.7 24.17 (00:50) 16.67 (00:20) 0 0 0 0 0
19-11-2020 17.9 (13:00) 6.8 (00:00) 12.3 25.28 (20:50) 18.33 (21:50) 0 0 0 0 0
18-11-2020 17.9 (14:10) 6.3 (00:00) 12.1 3.61 (08:40) 2.78 (21:20) 0 0 0 0 0
17-11-2020 17.8 (14:20) 6.2 (00:00) 12 6.67 (05:30) 5 (06:50) 0 0 0 0 0
16-11-2020 16.8 (00:00) 8.9 (00:00) 12.8 13.89 (13:00) 9.44 (13:00) 0.2 0.2 0 0 0
15-11-2020 20.2 (14:30) 8.6 (00:00) 14.4 11.11 (12:10) 6.67 (10:50) 0.2 0 0.2 0 0
14-11-2020 12.6 (23:20) 5.7 (00:00) 9.2 4.17 (08:50) 2.78 (14:20) 0.4 0 0 0.4 0
13-11-2020 13.9 (14:40) 6 (00:00) 9.9 3.61 (01:50) 2.5 (03:30) 0 0 0 0 0
12-11-2020 12.2 (15:00) 5.5 (00:00) 8.8 5 (03:50) 3.61 (19:10) 0 0 0 0 0
11-11-2020 16 (14:40) 5 (00:00) 10.5 5.28 (14:50) 3.61 (15:00) 0 0 0 0 0
10-11-2020 16.2 (14:00) 7.2 (00:00) 11.7 10 (14:50) 6.67 (14:50) 0 0 0 0 0
09-11-2020 -- (--) -- (--) -- -- (--) -- (--) -- 0 0 -- 0
08-11-2020 16.9 (14:30) 7.7 (00:00) 12.3 11.11 (03:00) 6.11 (02:10) 0 0 0 0 0
07-11-2020 -- (--) -- (--) -- -- (--) -- (--) -- 0.4 -- 0.2 0
06-11-2020 15.4 (15:20) 10.6 (00:00) 13 17.22 (22:50) 11.67 (22:50) 0 0 0 0 0
05-11-2020 10.9 (19:20) 6.7 (00:00) 8.8 7.78 (23:20) 5.56 (23:30) 7.4 0.4 0 0 7
04-11-2020 9 (13:20) 6.6 (00:00) 7.8 14.72 (02:20) 9.17 (02:10) 2.2 0 0 1.6 0.6
03-11-2020 15.6 (00:00) 8.4 (00:00) 12 17.5 (16:50) 11.39 (16:30) 0.4 0 0 0.2 0.2
02-11-2020 25.1 (14:40) 13 (00:00) 19.1 6.94 (03:50) 4.72 (19:10) 0 0 0 0 0
01-11-2020 24.1 (15:10) 9.1 (00:00) 16.6 10.83 (03:00) 7.5 (03:10) 0 0 0 0 0
31-10-2020 24.4 (15:50) 7 (00:00) 15.7 8.06 (14:10) 5 (14:10) 0 0 0 0 0
30-10-2020 21.1 (13:50) 6.7 (00:00) 13.9 4.17 (06:10) 3.33 (06:10) 0 0 0 0 0
29-10-2020 21.5 (15:20) 9.5 (00:00) 15.5 9.72 (01:40) 8.06 (01:30) 0 0 0 0 0
28-10-2020 19.6 (14:50) 10.5 (00:00) 15.1 12.78 (03:20) 8.89 (05:40) 0 0 0 0 0

Gráficas

Temp. máximas Temp. mínimas Temp. medias Precipitaciones Rachas de viento máximas Velocidades máximas media en intervalos de 10 minutos

Datos horarios

Fecha y hora oficial Temperatura (ºC) Velocidad del viento (km/h) Dirección del viento Racha (km/h) Dirección de racha Precipitación (mm) Presión (hPa) Tendencia (hPa) Humedad (%)
2020-11-26 23:00:00 10.6 17 Este 35 Este 0 -- -- 97
2020-11-26 22:00:00 10.8 14 Este 28 Este 0 -- -- 97
2020-11-26 21:00:00 11 15 Este 24 Este 0 -- -- 96
2020-11-26 20:00:00 10.3 9 Este 17 Sudeste 0 -- -- 98
2020-11-26 19:00:00 10.2 12 Este 26 Este 0 -- -- 98
2020-11-26 18:00:00 10.4 13 Este 26 Este 0 -- -- 99
2020-11-26 17:00:00 10.5 14 Este 31 Este 0 -- -- 98
2020-11-26 16:00:00 10.4 10 Este 26 Este 0 -- -- 99
2020-11-26 15:00:00 10.3 11 Este 25 Este 0 -- -- 99
2020-11-26 14:00:00 10.8 16 Este 25 Este 0.8 -- -- 99
2020-11-26 13:00:00 9.1 17 Este 28 Este 0 -- -- 100
2020-11-26 12:00:00 8.8 14 Este 23 Este 0 -- -- 100
2020-11-26 11:00:00 8.6 7 Este 22 Este 0 -- -- 100
2020-11-26 10:00:00 8.4 8 Este 17 Este 0 -- -- 100
2020-11-26 09:00:00 8.2 4 Este 25 Este 0 -- -- 100
2020-11-26 08:00:00 8 15 Este 24 Este 0 -- -- 100
2020-11-26 07:00:00 7.9 11 Este 19 Este 0 -- -- 100
2020-11-26 06:00:00 7.7 5 Sudeste 16 Este 0 -- -- 100
2020-11-26 05:00:00 7.4 6 Sudeste 15 Sudeste 0 -- -- 100
2020-11-26 04:00:00 7.2 11 Este 22 Sudeste 0 -- -- 100
2020-11-26 03:00:00 5.6 4 Sudeste 15 Este 0 -- -- 96
2020-11-26 02:00:00 6.6 12 Sudeste 21 Este 0 -- -- 90
2020-11-26 01:00:00 6.1 5 Sudoeste 12 Sur 0 -- -- 94
2020-11-26 00:00:00 6.9 6 Sur 14 Sudoeste 0 -- -- 93
2020-11-25 23:00:00 7.5 6 Sur 15 Sur 0 -- -- 90
2020-11-25 22:00:00 7.6 8 Sur 17 Sudeste 0 -- -- 87
2020-11-25 21:00:00 8.4 8 Sudeste 16 Sudeste 0 -- -- 77
2020-11-25 20:00:00 8.8 5 Sudeste 11 Este 0 -- -- 69
2020-11-25 19:00:00 8.3 2 Este 10 Sur 0 -- -- 69
2020-11-25 18:00:00 8.6 2 Sudoeste 9 Sudoeste 0 -- -- 79
2020-11-25 17:00:00 9.1 8 Sudeste 18 Sudeste 0 -- -- 82
2020-11-25 16:00:00 9.4 3 Sudeste 18 Este 0 -- -- 74
2020-11-25 15:00:00 11 9 Sudeste 16 Este 0 -- -- 63
2020-11-25 14:00:00 9.7 6 Este 17 Sudeste 0 -- -- 75
2020-11-25 13:00:00 10.6 11 Sudeste 22 Este 0 -- -- 71
2020-11-25 12:00:00 10.4 9 Sudeste 17 Este 0 -- -- 65
2020-11-25 11:00:00 9.8 3 Este 7 Este 0 -- -- 72
2020-11-25 10:00:00 4 2 Sudeste 8 Sur 0 -- -- 100
2020-11-25 09:00:00 3.1 2 Sur 6 Sur 0 -- -- 100
2020-11-25 08:00:00 2.9 3 Sur 7 Sudoeste 0 -- -- 100
2020-11-25 07:00:00 4.7 4 Sudeste 7 Sudeste 0 -- -- 100
2020-11-25 06:00:00 5.4 2 Sudeste 9 Sudeste 0 -- -- 100
2020-11-25 05:00:00 5.6 2 Sur 10 Sudeste 0 -- -- 100
2020-11-25 04:00:00 5.4 4 Sur 8 Sudoeste 0 -- -- 100
2020-11-25 03:00:00 4.3 3 Sur 8 Sur 0 -- -- 99
2020-11-25 02:00:00 2.3 4 Sur 9 Sudeste 0 -- -- 96
2020-11-25 01:00:00 2 6 Sudeste 10 Sudeste 0 -- -- 94
2020-11-25 00:00:00 1.6 7 Sudeste 10 Sudeste 0 -- -- 92
2020-11-24 23:00:00 2 6 Sudeste 9 Sudeste 0 -- -- 88
2020-11-24 22:00:00 3.5 3 Sudeste 6 Sudeste 0 -- -- 80
2020-11-24 21:00:00 5.1 2 Este 11 Sudoeste 0 -- -- 76
2020-11-24 20:00:00 6.7 6 Sudoeste 12 Sudoeste 0 -- -- 69
2020-11-24 19:00:00 6.9 4 Sur 13 Sudeste 0 -- -- 68
2020-11-24 18:00:00 7.6 7 Sur 12 Sur 0 -- -- 66
2020-11-24 17:00:00 8.7 7 Sudeste 15 Sudeste 0 -- -- 66
2020-11-24 16:00:00 10.3 9 Sudeste 15 Este 0 -- -- 59
2020-11-24 15:00:00 10.4 11 Sudeste 26 Sudeste 0 -- -- 56
2020-11-24 14:00:00 11.4 12 Este 18 Sudeste 0 -- -- 54
2020-11-24 13:00:00 11.4 9 Este 18 Este 0 -- -- 55
2020-11-24 12:00:00 11.5 6 Este 14 Sudeste 0 -- -- 55
2020-11-24 11:00:00 10 8 Sudeste 12 Este 0 -- -- 59
2020-11-24 10:00:00 9.2 3 Nordeste 6 Sudeste 0 -- -- 62
2020-11-24 09:00:00 3.6 2 Sudeste 9 Sudoeste 0 -- -- 83
2020-11-24 08:00:00 2.7 3 Sudoeste 8 Sur 0 -- -- 82
2020-11-24 07:00:00 2.3 3 Sudeste 10 Sudoeste 0 -- -- 85
2020-11-24 06:00:00 2 0 Calma 9 Sudeste 0 -- -- 88
2020-11-24 05:00:00 2 0 Calma 10 Sur 0 -- -- 87
2020-11-24 04:00:00 3.4 4 Sur 8 Sudoeste 0 -- -- 84
2020-11-24 03:00:00 1.4 6 Sur 14 Sudeste 0 -- -- 88
2020-11-24 02:00:00 1.5 3 Sudeste 10 Sudeste 0 -- -- 90
2020-11-24 01:00:00 2.6 3 Sur 9 Sudeste 0 -- -- 86
2020-11-24 00:00:00 1.1 2 Sur 12 Sudeste 0 -- -- 91
2020-11-23 23:00:00 1.8 8 Sudeste 12 Sudeste 0 -- -- 87
2020-11-23 22:00:00 2 5 Sudeste 13 Sudeste 0 -- -- 88
2020-11-23 21:00:00 2.7 10 Sudeste 14 Sudeste 0 -- -- 87
2020-11-23 20:00:00 3.5 12 Sudeste 14 Sudeste 0 -- -- 84
2020-11-23 19:00:00 5.2 5 Sur 11 Sur 0 -- -- 78
2020-11-23 18:00:00 6.3 3 Sudeste 6 Sudeste 0 -- -- 75
2020-11-23 17:00:00 8.8 2 Oeste 8 Norte 0 -- -- 64
2020-11-23 16:00:00 13.1 4 Norte 9 Noroeste 0 -- -- 49
2020-11-23 15:00:00 12.3 5 Norte 11 Norte 0 -- -- 54
2020-11-23 14:00:00 12.6 5 Norte 13 Norte 0 -- -- 53
2020-11-23 13:00:00 12.1 9 Noroeste 14 Norte 0 -- -- 57
2020-11-23 12:00:00 11.3 8 Norte 13 Norte 0 -- -- 55
2020-11-23 11:00:00 11.1 0 Calma 4 Este 0 -- -- 52
2020-11-23 10:00:00 7.5 2 Sudeste 5 Sudeste 0 -- -- 66
2020-11-23 09:00:00 2 5 Sudeste 12 Sudeste 0 -- -- 85
2020-11-23 08:00:00 0.6 6 Sur 15 Sudeste 0 -- -- 86
2020-11-23 07:00:00 1.3 9 Sudeste 14 Sudeste 0 -- -- 84
2020-11-23 06:00:00 0.8 9 Sudeste 13 Sudeste 0 -- -- 87
2020-11-23 05:00:00 0.7 8 Sudeste 14 Sudeste 0 -- -- 89
2020-11-23 04:00:00 0.8 11 Sudeste 14 Sudeste 0 -- -- 88
2020-11-23 03:00:00 1.1 10 Sudeste 14 Sudeste 0 -- -- 87
2020-11-23 02:00:00 2.2 9 Sudeste 15 Sudeste 0 -- -- 83
2020-11-23 01:00:00 1.5 6 Sudeste 15 Sudeste 0 -- -- 85
2020-11-23 00:00:00 1.8 10 Sudeste 17 Sudeste 0 -- -- 84
2020-11-22 23:00:00 2.5 9 Sudeste 15 Sudeste 0 -- -- 82
2020-11-22 22:00:00 2.2 9 Sudeste 14 Sudeste 0 -- -- 85
2020-11-22 21:00:00 2 5 Sur 13 Sudeste 0 -- -- 85
2020-11-22 20:00:00 2.3 5 Sudeste 12 Sudeste 0 -- -- 85
2020-11-22 19:00:00 3.2 8 Sudeste 12 Sudeste 0 -- -- 83
2020-11-22 18:00:00 5.2 3 Sudeste 9 Sudeste 0 -- -- 78
2020-11-22 17:00:00 8 2 Oeste 8 Noroeste 0 -- -- 68
2020-11-22 16:00:00 12.7 5 Norte 9 Norte 0 -- -- 49
2020-11-22 15:00:00 12.2 5 Norte 9 Norte 0 -- -- 49
2020-11-22 14:00:00 12 5 Norte 11 Nordeste 0 -- -- 48
2020-11-22 13:00:00 10.2 9 Noroeste 16 Noroeste 0 -- -- 54
2020-11-22 12:00:00 10 5 Norte 10 Norte 0 -- -- 50
2020-11-22 11:00:00 7.6 8 Norte 11 Norte 0 -- -- 55
2020-11-22 10:00:00 8.2 3 Nordeste 7 Norte 0 -- -- 53
2020-11-22 09:00:00 3.2 5 Sudeste 13 Sudeste 0 -- -- 74
2020-11-22 08:00:00 0.1 5 Sudeste 13 Sudeste 0 -- -- 79
2020-11-22 07:00:00 0.5 5 Sudeste 12 Sudeste 0 -- -- 75
2020-11-22 06:00:00 0.7 8 Sudeste 13 Sudeste 0 -- -- 74
2020-11-22 05:00:00 0.1 5 Sudeste 13 Sudeste 0 -- -- 76
2020-11-22 04:00:00 0.1 10 Sudeste 17 Sudeste 0 -- -- 76
2020-11-22 03:00:00 0.6 8 Sudeste 12 Sudeste 0 -- -- 73
2020-11-22 02:00:00 0.7 3 Oeste 11 Sudeste 0 -- -- 73
2020-11-22 01:00:00 2.2 2 Noroeste 8 Sudeste 0 -- -- 66
2020-11-22 00:00:00 2.1 3 Este 11 Sudeste 0 -- -- 68
2020-11-21 23:00:00 2.6 3 Sur 11 Sudeste 0 -- -- 67
2020-11-21 22:00:00 2.5 2 Sur 10 Sudeste 0 -- -- 68
2020-11-21 21:00:00 4.6 5 Sur 11 Sudeste 0 -- -- 59
2020-11-21 20:00:00 3.6 12 Sudeste 15 Sudeste 0 -- -- 68
2020-11-21 19:00:00 6.5 7 Sur 12 Sur 0 -- -- 56
2020-11-21 18:00:00 6.6 3 Sur 9 Sur 0 -- -- 57
2020-11-21 17:00:00 9.9 6 Sudeste 11 Sudeste 0 -- -- 47
2020-11-21 16:00:00 12.7 5 Sudeste 15 Sudeste 0 -- -- 41
2020-11-21 15:00:00 13.3 4 Este 11 Noroeste 0 -- -- 28
2020-11-21 14:00:00 14 5 Noroeste 14 Noroeste 0 -- -- 25
2020-11-21 13:00:00 13.1 5 Oeste 18 Oeste 0 -- -- 26
2020-11-21 12:00:00 12.2 6 Oeste 13 Oeste 0 -- -- 28
2020-11-21 11:00:00 11.2 5 Oeste 19 Oeste 0 -- -- 34
2020-11-21 10:00:00 9.4 2 Oeste 11 Sudeste 0 -- -- 35
2020-11-21 09:00:00 4.5 3 Sur 11 Sudeste 0 -- -- 57
2020-11-21 08:00:00 5.1 5 Sudeste 20 Noroeste 0 -- -- 49
2020-11-21 07:00:00 5.8 6 Sudeste 19 Oeste 0 -- -- 49
2020-11-21 06:00:00 5.3 7 Sudeste 21 Sudoeste 0 -- -- 52
2020-11-21 05:00:00 5.4 6 Sudeste 17 Sudoeste 0 -- -- 53
2020-11-21 04:00:00 5.6 9 Oeste 23 Oeste 0 -- -- 56
2020-11-21 03:00:00 5.6 11 Oeste 29 Oeste 0 -- -- 57
2020-11-21 02:00:00 6.3 17 Oeste 40 Oeste 0 -- -- 55
2020-11-21 01:00:00 6.4 18 Oeste 42 Oeste 0 -- -- 53
2020-11-21 00:00:00 7 25 Oeste 57 Oeste 0 -- -- 48
2020-11-20 23:00:00 7.8 36 Oeste 72 Oeste 0 -- -- 41
2020-11-20 22:00:00 8 36 Oeste 52 Oeste 0 -- -- 41
2020-11-20 21:00:00 7.8 27 Oeste 59 Oeste 0 -- -- 44
2020-11-20 20:00:00 8.2 42 Noroeste 60 Oeste 0 -- -- 46
2020-11-20 19:00:00 8.9 42 Noroeste 64 Noroeste 0 -- -- 49
2020-11-20 18:00:00 9.6 32 Noroeste 53 Noroeste 0 -- -- 40
2020-11-20 17:00:00 10.6 36 Noroeste 60 Oeste 0 -- -- 40
2020-11-20 16:00:00 12.1 31 Noroeste 56 Noroeste 0 -- -- 39
2020-11-20 15:00:00 12.4 29 Noroeste 53 Oeste 0 -- -- 42
2020-11-20 14:00:00 12 36 Oeste 61 Noroeste 0 -- -- 54
2020-11-20 13:00:00 11.5 32 Oeste 64 Oeste 0 -- -- 55
2020-11-20 12:00:00 10.9 32 Noroeste 67 Noroeste 0 -- -- 58
2020-11-20 11:00:00 9.9 45 Noroeste 81 Noroeste 0 -- -- 63
2020-11-20 10:00:00 9.2 51 Noroeste 77 Noroeste 0 -- -- 68
2020-11-20 09:00:00 8.2 46 Oeste 64 Oeste 0 -- -- 70
2020-11-20 08:00:00 7.5 42 Oeste 60 Oeste 0 -- -- 71
2020-11-20 07:00:00 7.4 31 Oeste 68 Oeste 0 -- -- 70
2020-11-20 06:00:00 7.5 41 Oeste 77 Oeste 0 -- -- 72
2020-11-20 05:00:00 7.7 50 Noroeste 84 Noroeste 0 -- -- 71
2020-11-20 04:00:00 7.6 39 Noroeste 67 Noroeste 0 -- -- 73
2020-11-20 03:00:00 7.9 46 Noroeste 72 Oeste 0 -- -- 68
2020-11-20 02:00:00 8.1 29 Oeste 76 Oeste 0 -- -- 72
2020-11-20 01:00:00 8.2 54 Oeste 87 Oeste 0 -- -- 75
2020-11-20 00:00:00 8.4 60 Oeste 84 Oeste 0 -- -- 78
2020-11-19 23:00:00 8.6 32 Oeste 77 Oeste 0 -- -- 80
2020-11-19 22:00:00 9.2 63 Oeste 87 Oeste 0 -- -- 77
2020-11-19 21:00:00 10.1 59 Oeste 91 Oeste 0 -- -- 71
2020-11-19 20:00:00 11.3 46 Oeste 70 Noroeste 0 -- -- 68
2020-11-19 19:00:00 11.8 51 Oeste 85 Oeste 0 -- -- 71
2020-11-19 18:00:00 13.1 48 Oeste 71 Oeste 0 -- -- 70
2020-11-19 17:00:00 14.1 44 Oeste 60 Oeste 0 -- -- 73
2020-11-19 16:00:00 16.1 37 Oeste 62 Oeste 0 -- -- 70
2020-11-19 15:00:00 16.9 35 Oeste 54 Oeste 0 -- -- 68
2020-11-19 14:00:00 17.6 31 Oeste 54 Noroeste 0 -- -- 66
2020-11-19 13:00:00 17.9 34 Noroeste 62 Oeste 0 -- -- 69
2020-11-19 12:00:00 16.7 37 Oeste 55 Oeste 0 -- -- 72
2020-11-19 11:00:00 15.3 38 Oeste 55 Oeste 0 -- -- 76
2020-11-19 10:00:00 14.6 32 Oeste 48 Noroeste 0 -- -- 73
2020-11-19 09:00:00 12.9 24 Oeste 44 Oeste 0 -- -- 77
2020-11-19 08:00:00 10.2 6 Este 19 Oeste 0 -- -- 86
2020-11-19 07:00:00 9.1 3 Sudeste 10 Oeste 0 -- -- 88
2020-11-19 06:00:00 8.9 6 Sudeste 9 Sudeste 0 -- -- 88
2020-11-19 05:00:00 9.4 5 Sudoeste 20 Oeste 0 -- -- 86
2020-11-19 04:00:00 9.3 4 Sur 12 Sudeste 0 -- -- 87
2020-11-19 03:00:00 8.5 6 Sur 12 Sudeste 0 -- -- 90
2020-11-19 02:00:00 7.7 8 Sudeste 13 Sudeste 0 -- -- 94
2020-11-19 01:00:00 6.8 8 Sudeste 15 Sudeste 0 -- -- 96
2020-11-19 00:00:00 7.4 10 Sudeste 12 Sudeste 0 -- -- 95
2020-11-18 23:00:00 7.4 3 Este 10 Sudeste 0 -- -- 95
2020-11-18 22:00:00 8.1 9 Sudeste 13 Sudeste 0 -- -- 94
2020-11-18 21:00:00 8.6 5 Sudeste 12 Sudeste 0 -- -- 94
2020-11-18 20:00:00 8.6 5 Sudeste 10 Sudeste 0 -- -- 93
2020-11-18 19:00:00 9.6 7 Sudeste 13 Sudeste 0 -- -- 91
2020-11-18 18:00:00 11.3 5 Sudeste 8 Sudeste 0 -- -- 87
2020-11-18 17:00:00 13.4 5 Oeste 9 Norte 0 -- -- 80
2020-11-18 16:00:00 17.8 6 Norte 12 Norte 0 -- -- 61
2020-11-18 15:00:00 17.6 6 Norte 12 Norte 0 -- -- 60
2020-11-18 14:00:00 17.6 7 Norte 13 Norte 0 -- -- 62
2020-11-18 13:00:00 17 7 Norte 13 Norte 0 -- -- 61
2020-11-18 12:00:00 16.3 4 Norte 8 Norte 0 -- -- 62
2020-11-18 11:00:00 14.3 6 Norte 10 Norte 0 -- -- 66
2020-11-18 10:00:00 14.4 3 Este 10 Sudeste 0 -- -- 66
2020-11-18 09:00:00 8.8 3 Sudeste 13 Sudeste 0 -- -- 85
2020-11-18 08:00:00 6.6 5 Sudeste 10 Sudeste 0 -- -- 88
2020-11-18 07:00:00 7.9 5 Sur 9 Sur 0 -- -- 85
2020-11-18 06:00:00 7.5 4 Sur 9 Sur 0 -- -- 89
2020-11-18 05:00:00 7.9 6 Sudeste 9 Sur 0 -- -- 87
2020-11-18 04:00:00 8.3 5 Sudeste 9 Sur 0 -- -- 85
2020-11-18 03:00:00 7.6 6 Sudeste 9 Sur 0 -- -- 88
2020-11-18 02:00:00 8.1 5 Sudeste 10 Sudoeste 0 -- -- 86
2020-11-18 01:00:00 8.8 6 Sur 10 Sudoeste 0 -- -- 85
2020-11-18 00:00:00 8.4 4 Sur 9 Sur 0 -- -- 86
2020-11-17 23:00:00 10 6 Sur 13 Sur 0 -- -- 81
2020-11-17 22:00:00 9.5 5 Sur 10 Sudoeste 0 -- -- 82
2020-11-17 21:00:00 9.8 4 Sur 10 Sur 0 -- -- 82
2020-11-17 20:00:00 10.3 8 Sur 12 Sudoeste 0 -- -- 79
2020-11-17 19:00:00 11.3 6 Sur 11 Sudeste 0 -- -- 75
2020-11-17 18:00:00 12.5 4 Sudeste 10 Sudeste 0 -- -- 75
2020-11-17 17:00:00 14.5 5 Sudeste 10 Sudeste 0 -- -- 68
2020-11-17 16:00:00 17.1 6 Sudeste 12 Sudeste 0 -- -- 60
2020-11-17 15:00:00 17.3 3 Nordeste 14 Norte 0 -- -- 58
2020-11-17 14:00:00 17.1 6 Norte 15 Norte 0 -- -- 57
2020-11-17 13:00:00 16.6 8 Norte 15 Norte 0 -- -- 58
2020-11-17 12:00:00 16.5 5 Nordeste 11 Norte 0 -- -- 57
2020-11-17 11:00:00 15.3 7 Oeste 12 Oeste 0 -- -- 60
2020-11-17 10:00:00 13.4 5 Sur 14 Oeste 0 -- -- 67
2020-11-17 09:00:00 10.1 3 Nordeste 13 Sudeste 0 -- -- 81
2020-11-17 08:00:00 9.5 12 Oeste 20 Oeste 0 -- -- 83
2020-11-17 07:00:00 9.2 14 Sudoeste 22 Sudoeste 0 -- -- 83
2020-11-17 06:00:00 8.7 9 Sur 24 Oeste 0 -- -- 82
2020-11-17 05:00:00 9 10 Sudoeste 22 Sudoeste 0 -- -- 80
2020-11-17 04:00:00 9 11 Sudoeste 21 Sudoeste 0 -- -- 79
2020-11-17 03:00:00 6.2 9 Sudeste 14 Sudeste 0 -- -- 91
2020-11-17 02:00:00 7 5 Sudeste 9 Oeste 0 -- -- 87
2020-11-17 01:00:00 8.5 5 Oeste 14 Noroeste 0 -- -- 80
2020-11-17 00:00:00 8.9 4 Noroeste 23 Oeste 0 -- -- 80
2020-11-16 23:00:00 9.9 8 Oeste 35 Noroeste 0 -- -- 76
2020-11-16 22:00:00 10 14 Oeste 32 Oeste 0 -- -- 75
2020-11-16 21:00:00 10.1 5 Oeste 34 Oeste 0 -- -- 75
2020-11-16 20:00:00 10.4 13 Oeste 26 Oeste 0 -- -- 74
2020-11-16 19:00:00 11.2 9 Noroeste 33 Oeste 0 -- -- 74
2020-11-16 18:00:00 12.1 26 Oeste 41 Oeste 0 -- -- 74
2020-11-16 17:00:00 13 24 Oeste 40 Noroeste 0 -- -- 72
2020-11-16 16:00:00 13.9 27 Oeste 39 Oeste 0 -- -- 70
2020-11-16 15:00:00 14.8 23 Noroeste 42 Noroeste 0 -- -- 63
2020-11-16 14:00:00 15 25 Oeste 46 Oeste 0 -- -- 64
2020-11-16 13:00:00 14.8 34 Noroeste 50 Oeste 0 -- -- 64
2020-11-16 12:00:00 14.7 24 Oeste 40 Oeste 0 -- -- 67
2020-11-16 11:00:00 13.2 24 Oeste 39 Noroeste 0 -- -- 73
2020-11-16 10:00:00 12.5 24 Oeste 39 Oeste 0 -- -- 79
2020-11-16 09:00:00 11 11 Oeste 26 Sudoeste 0 -- -- 86
2020-11-16 08:00:00 10.9 23 Oeste 34 Oeste 0 -- -- 85
2020-11-16 07:00:00 11.3 16 Oeste 34 Noroeste 0 -- -- 84
2020-11-16 06:00:00 11.7 21 Oeste 35 Oeste 0 -- -- 84
2020-11-16 05:00:00 11.9 24 Oeste 39 Oeste 0 -- -- 87
2020-11-16 04:00:00 12.4 22 Oeste 35 Oeste 0 -- -- 94
2020-11-16 03:00:00 14 20 Oeste 35 Sudoeste 0 -- -- 90
2020-11-16 02:00:00 16.6 25 Oeste 36 Oeste 0 -- -- 74
2020-11-16 01:00:00 16.2 17 Oeste 32 Oeste 0.2 -- -- 76
2020-11-16 00:00:00 16.8 18 Oeste 40 Sudoeste 0 -- -- 71
2020-11-15 23:00:00 16.6 12 Sudoeste 30 Sudoeste 0 -- -- 71
2020-11-15 22:00:00 16.8 12 Sudoeste 34 Oeste 0 -- -- 71
2020-11-15 21:00:00 17 16 Sudoeste 30 Sudoeste 0 -- -- 70
2020-11-15 20:00:00 16.8 12 Sudoeste 38 Sudoeste 0 -- -- 71
2020-11-15 19:00:00 17.3 15 Sudoeste 35 Oeste 0 -- -- 69
2020-11-15 18:00:00 17.7 11 Sudoeste 28 Oeste 0 -- -- 67
2020-11-15 17:00:00 18.7 13 Oeste 24 Oeste 0 -- -- 63
2020-11-15 16:00:00 19.2 9 Sudoeste 20 Sudoeste 0 -- -- 63
2020-11-15 15:00:00 19.4 8 Sudoeste 19 Oeste 0 -- -- 60
2020-11-15 14:00:00 20.1 9 Oeste 32 Sudoeste 0 -- -- 59
2020-11-15 13:00:00 19.4 18 Sudoeste 40 Sudoeste 0 -- -- 59
2020-11-15 12:00:00 18.6 18 Sudoeste 32 Sudoeste 0 -- -- 62
2020-11-15 11:00:00 16.8 20 Sudoeste 38 Sudoeste 0.2 -- -- 67
2020-11-15 10:00:00 15.8 14 Sudoeste 30 Sudoeste 0 -- -- 70
2020-11-15 09:00:00 11.8 4 Sur 13 Sudoeste 0 -- -- 87
2020-11-15 08:00:00 11.5 8 Sur 12 Sur 0 -- -- 86
2020-11-15 07:00:00 11 2 Sudeste 27 Sudoeste 0 -- -- 88
2020-11-15 06:00:00 13.5 10 Oeste 31 Sudoeste 0 -- -- 78
2020-11-15 05:00:00 11.2 6 Sudeste 16 Sudeste 0 -- -- 86
2020-11-15 04:00:00 10.1 4 Sudeste 10 Sudeste 0 -- -- 91
2020-11-15 03:00:00 8.7 9 Sudeste 12 Sudeste 0 -- -- 94
2020-11-15 02:00:00 9 5 Sudeste 13 Sudeste 0 -- -- 95
2020-11-15 01:00:00 10.7 4 Sudoeste 12 Sudoeste 0 -- -- 94
2020-11-15 00:00:00 11.6 4 Sudoeste 12 Sur 0 -- -- 89
2020-11-14 23:00:00 11.8 2 Sur 8 Sur 0 -- -- 93
2020-11-14 22:00:00 12.2 3 Este 8 Sur 0 -- -- 91
2020-11-14 21:00:00 12.3 4 Sur 9 Sur 0 -- -- 88
2020-11-14 20:00:00 10.9 2 Sudeste 9 Sur 0 -- -- 91
2020-11-14 19:00:00 10.7 4 Sur 8 Sur 0 -- -- 93
2020-11-14 18:00:00 10.6 3 Sudeste 7 Sudeste 0.2 -- -- 96
2020-11-14 17:00:00 11.3 0 Calma 4 Este 0.2 -- -- 94
2020-11-14 16:00:00 11.5 3 Este 6 Este 0 -- -- 92
2020-11-14 15:00:00 11.5 5 Sudeste 14 Sudeste 0 -- -- 91
2020-11-14 14:00:00 11 8 Sudeste 15 Sudeste 0 -- -- 89
2020-11-14 13:00:00 10.5 8 Sudeste 15 Sudeste 0 -- -- 92
2020-11-14 12:00:00 10.2 4 Sudeste 10 Sudeste 0 -- -- 98
2020-11-14 11:00:00 9.2 8 Sudeste 11 Sudeste 0 -- -- 100
2020-11-14 10:00:00 8.7 6 Sudeste 14 Sudeste 0 -- -- 100
2020-11-14 09:00:00 8.4 10 Sudeste 15 Sudeste 0 -- -- 100
2020-11-14 08:00:00 7.7 5 Sudeste 12 Sudeste 0 -- -- 100
2020-11-14 07:00:00 7.9 5 Sur 13 Sudeste 0 -- -- 100
2020-11-14 06:00:00 8.1 7 Sudeste 12 Sudeste 0 -- -- 100
2020-11-14 05:00:00 8.2 4 Sudeste 10 Sudeste 0 -- -- 100
2020-11-14 04:00:00 8.1 8 Sudeste 14 Sudeste 0 -- -- 100
2020-11-14 03:00:00 6.2 3 Sur 6 Sudoeste 0 -- -- 100
2020-11-14 02:00:00 6.1 0 Calma 3 Sur 0 -- -- 100
2020-11-14 01:00:00 6 0 Calma 6 Sudeste 0 -- -- 98
2020-11-14 00:00:00 6.1 2 Sudoeste 8 Sudeste 0 -- -- 99
2020-11-13 23:00:00 6.3 3 Sur 5 Sur 0 -- -- 98
2020-11-13 22:00:00 6.7 0 Calma 4 Sudeste 0 -- -- 95
2020-11-13 21:00:00 8.5 4 Este 9 Sur 0 -- -- 89
2020-11-13 20:00:00 8.2 6 Sudeste 9 Sudoeste 0 -- -- 91
2020-11-13 19:00:00 8.6 3 Sur 7 Sudoeste 0 -- -- 91
2020-11-13 18:00:00 9.1 3 Sur 9 Sudeste 0 -- -- 93
2020-11-13 17:00:00 10.7 0 Calma 6 Norte 0 -- -- 91
2020-11-13 16:00:00 11.3 4 Norte 12 Norte 0 -- -- 88
2020-11-13 15:00:00 12.7 9 Norte 12 Noroeste 0 -- -- 82
2020-11-13 14:00:00 13.1 6 Norte 11 Norte 0 -- -- 79
2020-11-13 13:00:00 12.6 5 Norte 12 Norte 0 -- -- 81
2020-11-13 12:00:00 11 4 Norte 8 Norte 0 -- -- 97
2020-11-13 11:00:00 8 3 Este 8 Noroeste 0 -- -- 100
2020-11-13 10:00:00 7.4 2 Norte 7 Sudeste 0 -- -- 100
2020-11-13 09:00:00 6.4 3 Sudoeste 6 Sur 0 -- -- 100
2020-11-13 08:00:00 6.4 3 Noroeste 4 Noroeste 0 -- -- 100
2020-11-13 07:00:00 6.4 0 Calma 6 Sur 0 -- -- 100
2020-11-13 06:00:00 6.9 3 Sudoeste 6 Sudoeste 0 -- -- 100
2020-11-13 05:00:00 7.2 0 Calma 9 Sudeste 0 -- -- 100
2020-11-13 04:00:00 7.4 5 Sudeste 12 Sudeste 0 -- -- 100
2020-11-13 03:00:00 7.5 2 Sudeste 11 Sudeste 0 -- -- 100
2020-11-13 02:00:00 7.4 8 Sudeste 13 Sudeste 0 -- -- 100
2020-11-13 01:00:00 7.4 4 Sudeste 12 Este 0 -- -- 100
2020-11-13 00:00:00 7.4 6 Este 12 Este 0 -- -- 100
2020-11-12 23:00:00 7.6 7 Sudeste 13 Sudeste 0 -- -- 100
2020-11-12 22:00:00 7.7 5 Sudeste 9 Sudeste 0 -- -- 100
2020-11-12 21:00:00 7.9 5 Sudeste 12 Sudeste 0 -- -- 100
2020-11-12 20:00:00 7.9 8 Sudeste 18 Sudeste 0 -- -- 100
2020-11-12 19:00:00 8.2 6 Sudeste 14 Sudeste 0 -- -- 98
2020-11-12 18:00:00 8.8 2 Nordeste 8 Sudeste 0 -- -- 94
2020-11-12 17:00:00 10.7 5 Sudeste 8 Sudeste 0 -- -- 90
2020-11-12 16:00:00 11.2 6 Norte 10 Norte 0 -- -- 88
2020-11-12 15:00:00 12.2 4 Norte 9 Norte 0 -- -- 84
2020-11-12 14:00:00 12.1 3 Norte 7 Nordeste 0 -- -- 83
2020-11-12 13:00:00 9.9 3 Noroeste 9 Noroeste 0 -- -- 90
2020-11-12 12:00:00 9.2 4 Norte 9 Noroeste 0 -- -- 91
2020-11-12 11:00:00 8.2 6 Norte 10 Norte 0 -- -- 94
2020-11-12 10:00:00 9 3 Norte 8 Sudeste 0 -- -- 89
2020-11-12 09:00:00 7.2 3 Sudeste 8 Sudeste 0 -- -- 93
2020-11-12 08:00:00 6.6 0 Calma 12 Sudeste 0 -- -- 94
2020-11-12 07:00:00 7.2 8 Sudeste 12 Sur 0 -- -- 91
2020-11-12 06:00:00 6.4 9 Sudeste 12 Sudeste 0 -- -- 96
2020-11-12 05:00:00 6.4 4 Noroeste 18 Este 0 -- -- 99
2020-11-12 04:00:00 5.7 4 Norte 18 Noroeste 0 -- -- 100
2020-11-12 03:00:00 5.8 3 Sudeste 5 Este 0 -- -- 100
2020-11-12 02:00:00 6 0 Calma 5 Norte 0 -- -- 99
2020-11-12 01:00:00 6.4 3 Oeste 8 Norte 0 -- -- 97
2020-11-12 00:00:00 10.6 6 Sudeste 13 Sudeste 0 -- -- 74
2020-11-11 23:00:00 8.2 0 Calma 5 Este 0 -- -- 85
2020-11-11 22:00:00 8.9 3 Nordeste 11 Sur 0 -- -- 79
2020-11-11 21:00:00 11.7 8 Sur 15 Sudoeste 0 -- -- 66
2020-11-11 20:00:00 10.8 4 Sur 10 Sur 0 -- -- 74
2020-11-11 19:00:00 10.2 3 Este 12 Sudeste 0 -- -- 79
2020-11-11 18:00:00 10.9 4 Sudeste 9 Sur 0 -- -- 77
2020-11-11 17:00:00 12.7 5 Sur 15 Sudeste 0 -- -- 70
2020-11-11 16:00:00 13.5 9 Sudeste 17 Este 0 -- -- 71
2020-11-11 15:00:00 14.5 13 Este 19 Este 0 -- -- 66
2020-11-11 14:00:00 15.1 7 Norte 14 Norte 0 -- -- 73
2020-11-11 13:00:00 14.8 7 Norte 17 Este 0 -- -- 72
2020-11-11 12:00:00 14.6 8 Este 16 Este 0 -- -- 68
2020-11-11 11:00:00 14 4 Este 8 Este 0 -- -- 69
2020-11-11 10:00:00 10.5 2 Nordeste 6 Norte 0 -- -- 82
2020-11-11 09:00:00 8.8 2 Sudeste 8 Sudeste 0 -- -- 87
2020-11-11 08:00:00 5 4 Sudoeste 13 Sudeste 0 -- -- 98
2020-11-11 07:00:00 5.4 6 Sudeste 13 Sudeste 0 -- -- 97
2020-11-11 06:00:00 5.7 5 Sudeste 12 Sudeste 0 -- -- 97
2020-11-11 05:00:00 5.4 0 Calma 13 Sudeste 0 -- -- 96
2020-11-11 04:00:00 5.7 3 Sudeste 13 Sudeste 0 -- -- 97
2020-11-11 03:00:00 6.4 8 Sudeste 14 Sudeste 0 -- -- 96
2020-11-11 02:00:00 6.5 4 Sudeste 13 Sudeste 0 -- -- 97
2020-11-11 01:00:00 6.8 11 Sudeste 14 Sudeste 0 -- -- 96
2020-11-11 00:00:00 7.2 9 Sudeste 15 Sudeste 0 -- -- 94
2020-11-10 23:00:00 7.5 10 Sudeste 17 Sudeste 0 -- -- 93
2020-11-10 22:00:00 8.1 8 Sudeste 12 Sudeste 0 -- -- 92
2020-11-10 21:00:00 9.2 5 Sudeste 12 Sudeste 0 -- -- 88
2020-11-10 20:00:00 11.5 9 Sudoeste 14 Oeste 0 -- -- 79
2020-11-10 19:00:00 11.1 8 Sudoeste 13 Oeste 0 -- -- 82
2020-11-10 18:00:00 12.6 9 Sudoeste 15 Oeste 0 -- -- 76
2020-11-10 17:00:00 14.1 15 Oeste 26 Oeste 0 -- -- 70
2020-11-10 16:00:00 15.4 21 Oeste 32 Oeste 0 -- -- 64
2020-11-10 15:00:00 16 19 Noroeste 36 Noroeste 0 -- -- 65
2020-11-10 14:00:00 16.2 19 Oeste 31 Oeste 0 -- -- 65
2020-11-10 13:00:00 15.9 14 Oeste 32 Oeste 0 -- -- 67
2020-11-10 12:00:00 14.5 18 Oeste 33 Sudoeste 0 -- -- 68
2020-11-10 11:00:00 13.6 15 Oeste 30 Oeste 0 -- -- 71
2020-11-10 10:00:00 12.6 15 Oeste 30 Sudoeste 0 -- -- 71
2020-11-10 09:00:00 11.8 21 Oeste 31 Oeste 0 -- -- 73
2020-11-10 08:00:00 9.2 13 Oeste 19 Sudoeste 0 -- -- 84
2020-11-10 07:00:00 9.9 16 Sudoeste 24 Sudoeste 0 -- -- 81
2020-11-10 06:00:00 10.3 8 Sudoeste 20 Sudoeste 0 -- -- 81
2020-11-10 05:00:00 11 17 Sudoeste 23 Sudoeste 0 -- -- 79
2020-11-10 04:00:00 10.1 14 Oeste 21 Sudoeste 0 -- -- 84
2020-11-10 03:00:00 10.2 12 Oeste 23 Oeste 0 -- -- 85
2020-11-10 02:00:00 10.6 14 Oeste 21 Oeste 0 -- -- 84
2020-11-10 01:00:00 10.6 11 Oeste 17 Sudoeste 0 -- -- 84
2020-11-10 00:00:00 11.5 9 Sudoeste 22 Sudoeste 0 -- -- 80
2020-11-09 23:00:00 11.2 17 Sudoeste 23 Sudoeste 0 -- -- 85
2020-11-09 22:00:00 10.2 7 Sudeste 11 Sudeste 0 -- -- 90
2020-11-09 21:00:00 11.2 9 Sudoeste 14 Sudoeste 0 -- -- 89
2020-11-09 20:00:00 9.2 9 Sudeste 12 Sudeste 0 -- -- 94
2020-11-09 19:00:00 10.4 8 Sudeste 10 Sudeste 0 -- -- 93
2020-11-09 18:00:00 11.8 0 Calma 8 Noroeste 0 -- -- 88
2020-11-09 17:00:00 15.1 7 Noroeste 20 Noroeste 0 -- -- 75
2020-11-09 16:00:00 18.7 11 Noroeste 22 Oeste 0 -- -- 58
2020-11-09 15:00:00 17.9 14 Oeste 24 Oeste 0 -- -- 59
2020-11-09 14:00:00 16.3 11 Oeste -- -- -- -- -- 65
2020-11-09 13:00:00 16.8 16 Oeste -- -- -- -- -- 64
2020-11-09 12:00:00 17.8 11 Sudoeste 23 Sudoeste 0 -- -- 56
2020-11-09 11:00:00 16.9 10 Sudoeste 23 Sudoeste 0 -- -- 58
2020-11-09 10:00:00 -- -- -- -- -- -- -- -- --
2020-11-09 09:00:00 -- -- -- -- -- -- -- -- --
2020-11-09 08:00:00 -- -- -- -- -- -- -- -- --
2020-11-09 07:00:00 -- -- -- -- -- -- -- -- --
2020-11-09 06:00:00 -- -- -- -- -- -- -- -- --
2020-11-09 05:00:00 -- -- -- -- -- -- -- -- --
2020-11-09 04:00:00 -- -- -- -- -- -- -- -- --
2020-11-09 03:00:00 -- -- -- -- -- -- -- -- --
2020-11-09 02:00:00 -- -- -- -- -- -- -- -- --
2020-11-09 01:00:00 -- -- -- -- -- -- -- -- --
2020-11-09 00:00:00 -- -- -- -- -- -- -- -- --
2020-11-08 23:00:00 -- -- -- -- -- -- -- -- --
2020-11-08 22:00:00 -- -- -- -- -- -- -- -- --
2020-11-08 21:00:00 -- -- -- -- -- -- -- -- --
2020-11-08 20:00:00 -- -- -- -- -- -- -- -- --
2020-11-08 19:00:00 -- -- -- -- -- -- -- -- --
2020-11-08 18:00:00 -- -- -- -- -- -- -- -- --
2020-11-08 17:00:00 -- -- -- -- -- -- -- -- --
2020-11-08 16:00:00 -- -- -- -- -- -- -- -- --
2020-11-08 15:00:00 -- -- -- -- -- -- -- -- --
2020-11-08 14:00:00 -- -- -- -- -- -- -- -- --
2020-11-08 13:00:00 -- -- -- -- -- -- -- -- --
2020-11-08 12:00:00 -- -- -- -- -- -- -- -- --
2020-11-08 11:00:00 -- -- -- -- -- -- -- -- --
2020-11-08 10:00:00 -- -- -- -- -- -- -- -- --
2020-11-08 09:00:00 -- -- -- -- -- -- -- -- --
2020-11-08 08:00:00 -- -- -- -- -- -- -- -- --
2020-11-08 07:00:00 -- -- -- -- -- -- -- -- --
2020-11-08 06:00:00 -- -- -- -- -- -- -- -- --
2020-11-08 05:00:00 -- -- -- -- -- -- -- -- --
2020-11-08 04:00:00 -- -- -- -- -- -- -- -- --
2020-11-08 03:00:00 -- -- -- -- -- -- -- -- --
2020-11-08 02:00:00 -- -- -- -- -- -- -- -- --
2020-11-08 01:00:00 -- -- -- -- -- -- -- -- --
2020-11-08 00:00:00 -- -- -- -- -- -- -- -- --
2020-11-07 23:00:00 -- -- -- -- -- -- -- -- --
2020-11-07 22:00:00 -- -- -- -- -- -- -- -- --
2020-11-07 21:00:00 -- -- -- -- -- -- -- -- --
2020-11-07 20:00:00 -- -- -- -- -- -- -- -- --
2020-11-07 19:00:00 -- -- -- -- -- -- -- -- --
2020-11-07 18:00:00 -- -- -- -- -- -- -- -- --
2020-11-07 17:00:00 -- -- -- -- -- -- -- -- --
2020-11-07 16:00:00 -- -- -- -- -- -- -- -- --
2020-11-07 15:00:00 -- -- -- -- -- -- -- -- --
2020-11-07 14:00:00 -- -- -- -- -- -- -- -- --
2020-11-07 13:00:00 -- -- -- -- -- -- -- -- --
2020-11-07 12:00:00 -- -- -- -- -- -- -- -- --
2020-11-07 11:00:00 -- -- -- -- -- -- -- -- --
2020-11-07 10:00:00 -- -- -- -- -- -- -- -- --
2020-11-07 09:00:00 -- -- -- -- -- -- -- -- --
2020-11-07 08:00:00 -- -- -- -- -- -- -- -- --
2020-11-07 07:00:00 13.7 10 Sur 42 Este 1 -- -- 96
2020-11-07 06:00:00 13.9 26 Este 46 Este 0.2 -- -- 95
2020-11-07 05:00:00 14.2 18 Este 52 Este 0.2 -- -- 96
2020-11-07 04:00:00 14.5 23 Este 50 Este 0 -- -- 95
2020-11-07 03:00:00 14.2 27 Este 49 Este 0 -- -- 95
2020-11-07 02:00:00 14.1 31 Este 57 Este 0 -- -- 96
2020-11-07 01:00:00 14.5 33 Este 54 Este 0 -- -- 95
2020-11-07 00:00:00 14.6 27 Este 52 Este 0 -- -- 95
2020-11-06 23:00:00 14.6 35 Este 62 Este 0 -- -- 95
2020-11-06 22:00:00 14.5 32 Este 62 Este 0 -- -- 95
2020-11-06 21:00:00 14.6 28 Este 55 Este 0 -- -- 95
2020-11-06 20:00:00 14.7 35 Este 58 Este 0 -- -- 94
2020-11-06 19:00:00 14.5 31 Este 55 Este 0 -- -- 94
2020-11-06 18:00:00 14.7 36 Este 56 Este 0 -- -- 93
2020-11-06 17:00:00 15 29 Este 49 Este 0 -- -- 92
2020-11-06 16:00:00 15.3 28 Este 59 Este 0 -- -- 91
2020-11-06 15:00:00 15.3 35 Este 52 Este 0 -- -- 91
2020-11-06 14:00:00 15 29 Este 49 Este 0 -- -- 94
2020-11-06 13:00:00 14.6 31 Este 56 Este 0 -- -- 97
2020-11-06 12:00:00 13.4 24 Este 40 Este 0 -- -- 100
2020-11-06 11:00:00 12.8 23 Este 41 Este 0 -- -- 100
2020-11-06 10:00:00 12.3 21 Este 38 Este 0 -- -- 100
2020-11-06 09:00:00 11.8 17 Este 32 Nordeste 0 -- -- 100
2020-11-06 08:00:00 11.5 14 Este 26 Este 0 -- -- 100
2020-11-06 07:00:00 11.3 12 Este 29 Este 0 -- -- 100
2020-11-06 06:00:00 11.2 20 Este 37 Este 0 -- -- 100
2020-11-06 05:00:00 11.2 24 Este 40 Sudeste 0 -- -- 100
2020-11-06 04:00:00 11.2 23 Este 40 Este 0 -- -- 100
2020-11-06 03:00:00 11.2 19 Este 31 Este 0 -- -- 100
2020-11-06 02:00:00 11 20 Este 30 Este 0 -- -- 100
2020-11-06 01:00:00 10.7 13 Sudeste 24 Este 0 -- -- 99
2020-11-06 00:00:00 10.8 9 Este 28 Este 0 -- -- 98
2020-11-05 23:00:00 10.8 15 Este 24 Este 1.6 -- -- 98
2020-11-05 22:00:00 10.6 9 Este 20 Sudeste 3.4 -- -- 97
2020-11-05 21:00:00 10.6 6 Este 19 Este 1.8 -- -- 97
2020-11-05 20:00:00 10.8 9 Este 18 Este 0.2 -- -- 94
2020-11-05 19:00:00 10.5 4 Este 16 Sudeste 0 -- -- 95
2020-11-05 18:00:00 9.7 12 Sudeste 23 Este 0 -- -- 98
2020-11-05 17:00:00 9.7 10 Este 18 Este 0 -- -- 97
2020-11-05 16:00:00 9.4 10 Este 22 Este 0 -- -- 97
2020-11-05 15:00:00 9.9 8 Este 14 Norte 0 -- -- 93
2020-11-05 14:00:00 9 9 Norte 13 Norte 0 -- -- 97
2020-11-05 13:00:00 9.5 4 Nordeste 15 Este 0 -- -- 96
2020-11-05 12:00:00 9.5 9 Este 19 Este 0 -- -- 93
2020-11-05 11:00:00 8.9 9 Este 23 Este 0 -- -- 99
2020-11-05 10:00:00 7.3 14 Este 22 Este 0 -- -- 100
2020-11-05 09:00:00 7.1 9 Sudeste 17 Este 0 -- -- 100
2020-11-05 08:00:00 6.9 4 Nordeste 19 Sudeste 0 -- -- 99
2020-11-05 07:00:00 6.9 8 Este 17 Este 0 -- -- 99
2020-11-05 06:00:00 7.2 8 Este 13 Este 0 -- -- 99
2020-11-05 05:00:00 7.3 5 Este 10 Este 0 -- -- 99
2020-11-05 04:00:00 7.4 3 Norte 4 Norte 0.2 -- -- 98
2020-11-05 03:00:00 7.4 2 Sudeste 4 Oeste 0.2 -- -- 98
2020-11-05 02:00:00 7 2 Sur 4 Nordeste 0 -- -- 97
2020-11-05 01:00:00 6.9 0 Calma 4 Norte 0 -- -- 96
2020-11-05 00:00:00 7 0 Calma 3 Este 0 -- -- 96
2020-11-04 23:00:00 6.9 0 Calma 5 Norte 0 -- -- 95
2020-11-04 22:00:00 6.8 2 Norte 5 Norte 0 -- -- 96
2020-11-04 21:00:00 6.7 3 Oeste 5 Noroeste 0 -- -- 95
2020-11-04 20:00:00 6.7 4 Oeste 5 Oeste 0.2 -- -- 95
2020-11-04 19:00:00 6.6 0 Calma 4 Noroeste 0.4 -- -- 94
2020-11-04 18:00:00 6.7 0 Calma 4 Noroeste 0.4 -- -- 94
2020-11-04 17:00:00 6.9 2 Norte 5 Norte 0.8 -- -- 90
2020-11-04 16:00:00 7.5 2 Norte 8 Noroeste 0.4 -- -- 84
2020-11-04 15:00:00 7.8 5 Noroeste 14 Noroeste 0 -- -- 81
2020-11-04 14:00:00 8.6 11 Oeste 19 Noroeste 0 -- -- 69
2020-11-04 13:00:00 8.9 13 Noroeste 21 Noroeste 0 -- -- 68
2020-11-04 12:00:00 8.5 15 Noroeste 23 Noroeste 0 -- -- 68
2020-11-04 11:00:00 7.9 14 Noroeste 20 Noroeste 0 -- -- 70
2020-11-04 10:00:00 7.6 11 Noroeste 21 Noroeste 0 -- -- 74
2020-11-04 09:00:00 7.1 10 Noroeste 21 Noroeste 0 -- -- 74
2020-11-04 08:00:00 7.1 15 Noroeste 22 Noroeste 0 -- -- 74
2020-11-04 07:00:00 7.2 9 Noroeste 27 Oeste 0 -- -- 72
2020-11-04 06:00:00 7.3 16 Noroeste 37 Oeste 0 -- -- 72
2020-11-04 05:00:00 7.5 18 Noroeste 41 Noroeste 0 -- -- 72
2020-11-04 04:00:00 7.6 22 Noroeste 49 Oeste 0 -- -- 71
2020-11-04 03:00:00 7.8 27 Oeste 53 Noroeste 0 -- -- 73
2020-11-04 02:00:00 8 30 Oeste 48 Oeste 0 -- -- 73
2020-11-04 01:00:00 8.1 23 Oeste 39 Oeste 0 -- -- 74
2020-11-04 00:00:00 8.4 21 Noroeste 49 Oeste 0 -- -- 75
2020-11-03 23:00:00 8.6 32 Oeste 60 Oeste 0 -- -- 76
2020-11-03 22:00:00 9 35 Oeste 57 Oeste 0 -- -- 78
2020-11-03 21:00:00 9.1 29 Oeste 56 Noroeste 0.2 -- -- 82
2020-11-03 20:00:00 10.2 35 Oeste 50 Oeste 0 -- -- 79
2020-11-03 19:00:00 10.3 26 Oeste 38 Oeste 0 -- -- 84
2020-11-03 18:00:00 10.2 25 Oeste 51 Oeste 0.2 -- -- 86
2020-11-03 17:00:00 10.9 36 Oeste 63 Oeste 0 -- -- 78
2020-11-03 16:00:00 11.8 30 Oeste 44 Oeste 0 -- -- 69
2020-11-03 15:00:00 12.2 28 Noroeste 49 Noroeste 0 -- -- 69
2020-11-03 14:00:00 12.2 32 Noroeste 54 Oeste 0 -- -- 73
2020-11-03 13:00:00 12.7 25 Noroeste 47 Oeste 0 -- -- 72
2020-11-03 12:00:00 11.6 28 Oeste 41 Oeste 0 -- -- 79
2020-11-03 11:00:00 12 28 Oeste -- -- -- -- -- 80
2020-11-03 10:00:00 12.2 32 Oeste 50 Oeste 0 -- -- 79
2020-11-03 09:00:00 12.2 26 Oeste 45 Oeste 0 -- -- 80
2020-11-03 08:00:00 11.8 33 Oeste 49 Oeste 0 -- -- 81
2020-11-03 07:00:00 12.1 30 Oeste 41 Oeste 0 -- -- 79
2020-11-03 06:00:00 12.6 9 Noroeste 16 Oeste 0 -- -- 81
2020-11-03 05:00:00 13.1 4 Oeste 18 Noroeste 0 -- -- 80
2020-11-03 04:00:00 13.8 6 Noroeste 19 Oeste 0 -- -- 78
2020-11-03 03:00:00 13.9 6 Oeste 22 Oeste 0 -- -- 79
2020-11-03 02:00:00 14.2 5 Oeste 19 Sudoeste 0 -- -- 80
2020-11-03 01:00:00 14.8 14 Sudoeste 21 Oeste 0 -- -- 79
2020-11-03 00:00:00 15.6 14 Sudoeste 22 Sudoeste 0 -- -- 75
2020-11-02 23:00:00 15.1 10 Oeste 17 Oeste 0 -- -- 74
2020-11-02 22:00:00 16.1 11 Oeste 18 Oeste 0 -- -- 69
2020-11-02 21:00:00 16.6 13 Oeste 19 Oeste 0 -- -- 67
2020-11-02 20:00:00 17.4 16 Oeste 23 Oeste 0 -- -- 65
2020-11-02 19:00:00 18 17 Oeste 23 Oeste 0 -- -- 62
2020-11-02 18:00:00 17.4 9 Noroeste 13 Noroeste 0 -- -- 62
2020-11-02 17:00:00 21 7 Norte 23 Noroeste 0 -- -- 50
2020-11-02 16:00:00 24.4 10 Oeste 24 Oeste 0 -- -- 42
2020-11-02 15:00:00 24.8 13 Oeste 24 Sudoeste 0 -- -- 38
2020-11-02 14:00:00 23.8 12 Oeste 20 Oeste 0 -- -- 39
2020-11-02 13:00:00 23.3 11 Oeste 23 Oeste 0 -- -- 35
2020-11-02 12:00:00 23.2 8 Sudoeste 19 Sudoeste 0 -- -- 37
2020-11-02 11:00:00 21.7 9 Sudoeste 19 Sudoeste 0 -- -- 38
2020-11-02 10:00:00 20.2 8 Sudoeste 23 Sudoeste 0 -- -- 41
2020-11-02 09:00:00 17.1 0 Calma 6 Nordeste 0 -- -- 49
2020-11-02 08:00:00 14.8 4 Sudeste 15 Sudeste 0 -- -- 55
2020-11-02 07:00:00 14 7 Sudeste 14 Sur 0 -- -- 58
2020-11-02 06:00:00 14.7 5 Sudeste 22 Sudoeste 0 -- -- 60
2020-11-02 05:00:00 15.9 9 Sur 24 Sudoeste 0 -- -- 58
2020-11-02 04:00:00 17.1 14 Sudoeste 25 Sudoeste 0 -- -- 53
2020-11-02 03:00:00 16.1 7 Sudoeste 17 Sudoeste 0 -- -- 57
2020-11-02 02:00:00 16.6 9 Sudoeste 17 Sudoeste 0 -- -- 57
2020-11-02 01:00:00 14.6 9 Este 16 Este 0 -- -- 66
2020-11-02 00:00:00 13.2 10 Sudeste 14 Sudeste 0 -- -- 74
2020-11-01 23:00:00 15.2 6 Sur 10 Sur 0 -- -- 67
2020-11-01 22:00:00 15.6 4 Sur 10 Sur 0 -- -- 63
2020-11-01 21:00:00 15.7 2 Este 11 Sur 0 -- -- 62
2020-11-01 20:00:00 16.5 5 Sur 11 Sur 0 -- -- 61
2020-11-01 19:00:00 16.9 0 Calma 8 Sudeste 0 -- -- 63
2020-11-01 18:00:00 17.5 3 Noroeste 8 Norte 0 -- -- 62
2020-11-01 17:00:00 22.3 5 Noroeste 14 Oeste 0 -- -- 47
2020-11-01 16:00:00 24 8 Oeste 15 Noroeste 0 -- -- 41
2020-11-01 15:00:00 23.6 7 Oeste 27 Oeste 0 -- -- 42
2020-11-01 14:00:00 22.7 10 Oeste 24 Noroeste 0 -- -- 44
2020-11-01 13:00:00 21.7 14 Noroeste 27 Oeste 0 -- -- 49
2020-11-01 12:00:00 21.1 9 Noroeste 21 Noroeste 0 -- -- 52
2020-11-01 11:00:00 19.5 12 Oeste 30 Oeste 0 -- -- 56
2020-11-01 10:00:00 18.2 9 Oeste 19 Oeste 0 -- -- 59
2020-11-01 09:00:00 16 6 Oeste 15 Sudoeste 0 -- -- 63
2020-11-01 08:00:00 10.1 5 Sudeste 11 Sudeste 0 -- -- 85
2020-11-01 07:00:00 9.8 0 Calma 11 Sudeste 0 -- -- 83
2020-11-01 06:00:00 12.9 7 Sudeste 17 Sudeste 0 -- -- 72
2020-11-01 05:00:00 14.2 5 Este 27 Oeste 0 -- -- 67
2020-11-01 04:00:00 15.9 11 Oeste 38 Oeste 0 -- -- 60
2020-11-01 03:00:00 17.4 26 Sudoeste 39 Oeste 0 -- -- 56
2020-11-01 02:00:00 16.1 12 Oeste 28 Oeste 0 -- -- 60
2020-11-01 01:00:00 13.4 6 Sudeste 13 Sudeste 0 -- -- 67
2020-11-01 00:00:00 11.8 7 Sudeste 13 Sudeste 0 -- -- 71
2020-10-31 23:00:00 11.4 4 Sudeste 14 Sudeste 0 -- -- 74
2020-10-31 22:00:00 11.7 7 Sudeste 10 Sudeste 0 -- -- 74
2020-10-31 21:00:00 14.6 4 Este 11 Este 0 -- -- 65
2020-10-31 20:00:00 13.7 7 Sudeste 15 Este 0 -- -- 69
2020-10-31 19:00:00 14.6 5 Sur 9 Sur 0 -- -- 66
2020-10-31 18:00:00 16.8 3 Noroeste 15 Oeste 0 -- -- 58
2020-10-31 17:00:00 22.6 11 Oeste 20 Sudoeste 0 -- -- 36
2020-10-31 16:00:00 24 12 Oeste 22 Sudoeste 0 -- -- 31
2020-10-31 15:00:00 24 14 Oeste 29 Oeste 0 -- -- 32
2020-10-31 14:00:00 24.1 11 Sudoeste 24 Sudoeste 0 -- -- 33
2020-10-31 13:00:00 21.9 9 Norte 18 Norte 0 -- -- 44
2020-10-31 12:00:00 21.7 5 Norte 12 Sudoeste 0 -- -- 45
2020-10-31 11:00:00 20.3 2 Nordeste 6 Norte 0 -- -- 45
2020-10-31 10:00:00 16.8 0 Calma 4 Norte 0 -- -- 55
2020-10-31 09:00:00 12 0 Calma 12 Sudeste 0 -- -- 71
2020-10-31 08:00:00 7.2 4 Sudeste 11 Sudeste 0 -- -- 83
2020-10-31 07:00:00 7.4 5 Sudeste 12 Sur 0 -- -- 83
2020-10-31 06:00:00 8.1 9 Sudeste 12 Sudeste 0 -- -- 82
2020-10-31 05:00:00 10.1 3 Sur 12 Sudeste 0 -- -- 76
2020-10-31 04:00:00 8.4 7 Sudeste 12 Sudeste 0 -- -- 83
2020-10-31 03:00:00 7.9 8 Sudeste 12 Sudeste 0 -- -- 85
2020-10-31 02:00:00 8.4 7 Sudeste 14 Sudeste 0 -- -- 83
2020-10-31 01:00:00 8 8 Sudeste 12 Sudeste 0 -- -- 84
2020-10-31 00:00:00 8.4 4 Sudeste 11 Sudeste 0 -- -- 81
2020-10-30 23:00:00 8.4 8 Sudeste 13 Sudeste 0 -- -- 79
2020-10-30 22:00:00 9.5 6 Sudeste 14 Sudeste 0 -- -- 76
2020-10-30 21:00:00 10.3 11 Sudeste 13 Sudeste 0 -- -- 80
2020-10-30 20:00:00 11.5 8 Sudeste 10 Sudeste 0 -- -- 76
2020-10-30 19:00:00 12.9 6 Sudeste 11 Sur 0 -- -- 71
2020-10-30 18:00:00 15.7 5 Sur 15 Sudeste 0 -- -- 61
2020-10-30 17:00:00 18.3 10 Este 15 Este 0 -- -- 54
2020-10-30 16:00:00 20.8 5 Este 13 Norte 0 -- -- 49
2020-10-30 15:00:00 20.6 8 Norte 14 Norte 0 -- -- 51
2020-10-30 14:00:00 20.8 7 Norte 13 Nordeste 0 -- -- 50
2020-10-30 13:00:00 19.1 9 Norte 15 Norte 0 -- -- 56
2020-10-30 12:00:00 18.7 8 Este 14 Este 0 -- -- 55
2020-10-30 11:00:00 17.5 5 Sudeste 12 Este 0 -- -- 58
2020-10-30 10:00:00 16.3 3 Este 8 Sudoeste 0 -- -- 61
2020-10-30 09:00:00 10.6 8 Sudeste 12 Sudeste 0 -- -- 82
2020-10-30 08:00:00 7.7 4 Sudeste 13 Sudeste 0 -- -- 89
2020-10-30 07:00:00 7.3 11 Sudeste 15 Sudeste 0 -- -- 91
2020-10-30 06:00:00 6.9 9 Sudeste 14 Este 0 -- -- 92
2020-10-30 05:00:00 7.5 9 Sudeste 12 Sudeste 0 -- -- 91
2020-10-30 04:00:00 8.4 6 Sudeste 13 Sudeste 0 -- -- 89
2020-10-30 03:00:00 9.4 10 Sudeste 14 Sudeste 0 -- -- 86
2020-10-30 02:00:00 10.3 5 Sudeste 10 Sudeste 0 -- -- 83
2020-10-30 01:00:00 9.6 6 Sudeste 10 Sudeste 0 -- -- 85
2020-10-30 00:00:00 10.7 3 Sudeste 8 Sudeste 0 -- -- 83
2020-10-29 23:00:00 10.9 3 Sudeste 11 Sudeste 0 -- -- 82
2020-10-29 22:00:00 10.2 9 Sudeste 12 Sudeste 0 -- -- 85
2020-10-29 21:00:00 11 4 Sur 12 Sudeste 0 -- -- 82
2020-10-29 20:00:00 10.6 5 Sudeste 10 Sudeste 0 -- -- 84
2020-10-29 19:00:00 11.9 3 Sudeste 6 Sur 0 -- -- 81
2020-10-29 18:00:00 14.1 0 Calma 6 Noroeste 0 -- -- 72
2020-10-29 17:00:00 19.5 3 Norte 12 Norte 0 -- -- 54
2020-10-29 16:00:00 20.4 5 Norte 15 Norte 0 -- -- 52
2020-10-29 15:00:00 21.4 5 Oeste 15 Noroeste 0 -- -- 45
2020-10-29 14:00:00 20.6 3 Sudoeste 15 Sudoeste 0 -- -- 46
2020-10-29 13:00:00 19.6 8 Oeste 19 Sudoeste 0 -- -- 53
2020-10-29 12:00:00 18.4 7 Sudoeste 15 Sudoeste 0 -- -- 55
2020-10-29 11:00:00 16.7 12 Oeste 22 Sudoeste 0 -- -- 63
2020-10-29 10:00:00 14.8 14 Sudoeste 25 Sudoeste 0 -- -- 69
2020-10-29 09:00:00 13.2 12 Sudoeste 26 Sudoeste 0 -- -- 77
2020-10-29 08:00:00 10.7 12 Oeste 21 Sudoeste 0 -- -- 88
2020-10-29 07:00:00 10 5 Sur 13 Oeste 0 -- -- 88
2020-10-29 06:00:00 10.4 5 Sur 16 Este 0 -- -- 87
2020-10-29 05:00:00 9.7 4 Sur 13 Sur 0 -- -- 90
2020-10-29 04:00:00 10.6 5 Sudeste 27 Sudoeste 0 -- -- 88
2020-10-29 03:00:00 12.1 18 Sudoeste 27 Sudoeste 0 -- -- 82
2020-10-29 02:00:00 12.1 13 Sudoeste 35 Oeste 0 -- -- 82
2020-10-29 01:00:00 12.9 26 Oeste 34 Oeste 0 -- -- 80
2020-10-29 00:00:00 11.7 4 Este 19 Sudoeste 0 -- -- 82
2020-10-28 23:00:00 11 5 Oeste 17 Sudoeste 0 -- -- 84
2020-10-28 22:00:00 11.6 6 Sudeste 13 Sudeste 0 -- -- 81
2020-10-28 21:00:00 11.6 10 Sudeste 13 Sudeste 0 -- -- 81
2020-10-28 20:00:00 10.7 8 Sudeste 14 Sudeste 0 -- -- 84
2020-10-28 19:00:00 12.8 7 Sudeste 9 Sudeste 0 -- -- 77
2020-10-28 18:00:00 15.9 7 Noroeste 22 Oeste 0 -- -- 66
2020-10-28 17:00:00 19.2 12 Oeste 30 Oeste 0 -- -- 53
2020-10-28 16:00:00 19.6 19 Oeste 40 Oeste 0 -- -- 50
2020-10-28 15:00:00 19.2 26 Oeste 45 Oeste 0 -- -- 52
2020-10-28 14:00:00 18 22 Oeste 40 Oeste 0 -- -- 57
2020-10-28 13:00:00 19.1 15 Oeste 35 Sudoeste 0 -- -- 55
2020-10-28 12:00:00 17.7 19 Sudoeste 28 Sur 0 -- -- 58
2020-10-28 11:00:00 16.5 12 Oeste 23 Noroeste 0 -- -- 64
2020-10-28 10:00:00 15.3 13 Oeste 23 Oeste 0 -- -- 66
2020-10-28 09:00:00 13.4 9 Noroeste 31 Sudoeste 0 -- -- 69
2020-10-28 08:00:00 12.4 15 Sudoeste 38 Sudoeste 0 -- -- 70
2020-10-28 07:00:00 12.9 23 Oeste 35 Sudoeste 0 -- -- 72
2020-10-28 06:00:00 13.1 26 Oeste 45 Oeste 0 -- -- 71
2020-10-28 05:00:00 12.8 28 Oeste 45 Oeste 0 -- -- 71
2020-10-28 04:00:00 12.8 19 Sudoeste 46 Sudoeste 0 -- -- 71
2020-10-28 03:00:00 12.7 27 Oeste 40 Sudoeste 0 -- -- 71
2020-10-28 02:00:00 12.3 20 Oeste 40 Sudoeste 0 -- -- 71
2020-10-28 01:00:00 12.6 19 Oeste 42 Oeste 0 -- -- 69
2020-10-28 00:00:00 12.6 23 Oeste 45 Sudoeste 0 -- -- 69